sensor_id;sensor_type;location;lat;lon;timestamp;temperature;humidity
15556;DHT22;7879;48.660;9.116;2022-12-07T00:01:13;2.80;99.90
15556;DHT22;7879;48.660;9.116;2022-12-07T00:03:42;2.80;99.90
15556;DHT22;7879;48.660;9.116;2022-12-07T00:06:11;2.80;99.90
15556;DHT22;7879;48.660;9.116;2022-12-07T00:08:38;2.80;99.90
15556;DHT22;7879;48.660;9.116;2022-12-07T00:11:07;2.80;99.90
15556;DHT22;7879;48.660;9.116;2022-12-07T00:13:35;2.80;99.90
15556;DHT22;7879;48.660;9.116;2022-12-07T00:16:03;2.80;99.90
15556;DHT22;7879;48.660;9.116;2022-12-07T00:18:31;2.80;99.90
15556;DHT22;7879;48.660;9.116;2022-12-07T00:21:19;2.80;99.90
15556;DHT22;7879;48.660;9.116;2022-12-07T00:23:48;2.80;99.90
15556;DHT22;7879;48.660;9.116;2022-12-07T00:26:23;2.80;99.90
15556;DHT22;7879;48.660;9.116;2022-12-07T00:28:54;2.80;99.90
15556;DHT22;7879;48.660;9.116;2022-12-07T00:31:24;2.80;99.90
15556;DHT22;7879;48.660;9.116;2022-12-07T00:33:52;2.80;99.90
15556;DHT22;7879;48.660;9.116;2022-12-07T00:36:21;2.80;99.90
15556;DHT22;7879;48.660;9.116;2022-12-07T00:38:54;2.80;99.90
15556;DHT22;7879;48.660;9.116;2022-12-07T00:41:23;2.80;99.90
15556;DHT22;7879;48.660;9.116;2022-12-07T00:43:50;2.80;99.90
15556;DHT22;7879;48.660;9.116;2022-12-07T00:46:19;2.80;99.90
15556;DHT22;7879;48.660;9.116;2022-12-07T00:48:46;2.80;99.90
15556;DHT22;7879;48.660;9.116;2022-12-07T00:51:15;2.80;99.90
15556;DHT22;7879;48.660;9.116;2022-12-07T00:53:42;2.80;99.90
15556;DHT22;7879;48.660;9.116;2022-12-07T00:56:17;2.80;99.90
15556;DHT22;7879;48.660;9.116;2022-12-07T00:59:11;2.80;99.90
15556;DHT22;7879;48.660;9.116;2022-12-07T01:01:36;2.80;99.90
15556;DHT22;7879;48.660;9.116;2022-12-07T01:04:04;2.80;99.90
15556;DHT22;7879;48.660;9.116;2022-12-07T01:06:31;2.80;99.90
15556;DHT22;7879;48.660;9.116;2022-12-07T01:08:58;2.80;99.90
15556;DHT22;7879;48.660;9.116;2022-12-07T01:11:27;2.80;99.90
15556;DHT22;7879;48.660;9.116;2022-12-07T01:13:56;2.80;99.90
15556;DHT22;7879;48.660;9.116;2022-12-07T01:16:25;2.80;99.90
15556;DHT22;7879;48.660;9.116;2022-12-07T01:18:54;2.80;99.90
15556;DHT22;7879;48.660;9.116;2022-12-07T01:21:30;2.80;99.90
15556;DHT22;7879;48.660;9.116;2022-12-07T01:23:59;2.70;99.90
15556;DHT22;7879;48.660;9.116;2022-12-07T01:26:26;2.80;99.90
15556;DHT22;7879;48.660;9.116;2022-12-07T01:28:53;2.80;99.90
15556;DHT22;7879;48.660;9.116;2022-12-07T01:31:23;2.70;99.90
15556;DHT22;7879;48.660;9.116;2022-12-07T01:33:52;2.70;99.90
15556;DHT22;7879;48.660;9.116;2022-12-07T01:36:29;2.70;99.90
15556;DHT22;7879;48.660;9.116;2022-12-07T01:38:58;2.70;99.90
15556;DHT22;7879;48.660;9.116;2022-12-07T01:41:29;2.70;99.90
15556;DHT22;7879;48.660;9.116;2022-12-07T01:47:04;2.70;99.90
15556;DHT22;7879;48.660;9.116;2022-12-07T01:54:48;2.70;99.90
15556;DHT22;7879;48.660;9.116;2022-12-07T01:57:17;2.70;99.90
15556;DHT22;7879;48.660;9.116;2022-12-07T01:59:45;2.70;99.90
15556;DHT22;7879;48.660;9.116;2022-12-07T02:02:19;2.70;99.90
15556;DHT22;7879;48.660;9.116;2022-12-07T02:04:46;2.60;99.90
15556;DHT22;7879;48.660;9.116;2022-12-07T02:07:13;2.70;99.90
15556;DHT22;7879;48.660;9.116;2022-12-07T02:09:40;2.60;99.90
15556;DHT22;7879;48.660;9.116;2022-12-07T02:12:07;2.80;99.90
15556;DHT22;7879;48.660;9.116;2022-12-07T02:14:34;2.60;99.90
15556;DHT22;7879;48.660;9.116;2022-12-07T02:17:25;2.60;99.90
15556;DHT22;7879;48.660;9.116;2022-12-07T02:20:15;2.70;99.90
15556;DHT22;7879;48.660;9.116;2022-12-07T02:31:17;2.60;99.90
15556;DHT22;7879;48.660;9.116;2022-12-07T02:33:52;2.50;99.90
15556;DHT22;7879;48.660;9.116;2022-12-07T02:39:05;2.60;99.90
15556;DHT22;7879;48.660;9.116;2022-12-07T02:41:42;2.60;99.90
15556;DHT22;7879;48.660;9.116;2022-12-07T02:44:13;2.60;99.90
15556;DHT22;7879;48.660;9.116;2022-12-07T02:46:43;2.60;99.90
15556;DHT22;7879;48.660;9.116;2022-12-07T02:49:11;2.60;99.90
15556;DHT22;7879;48.660;9.116;2022-12-07T02:51:43;2.60;99.90
15556;DHT22;7879;48.660;9.116;2022-12-07T02:54:16;2.60;99.90
15556;DHT22;7879;48.660;9.116;2022-12-07T03:02:00;2.50;99.90
15556;DHT22;7879;48.660;9.116;2022-12-07T03:09:47;2.50;99.90
15556;DHT22;7879;48.660;9.116;2022-12-07T03:12:42;2.50;99.90
15556;DHT22;7879;48.660;9.116;2022-12-07T03:15:57;2.50;99.90
15556;DHT22;7879;48.660;9.116;2022-12-07T03:18:05;2.50;99.90
15556;DHT22;7879;48.660;9.116;2022-12-07T03:20:32;2.50;99.90
15556;DHT22;7879;48.660;9.116;2022-12-07T03:23:07;2.50;99.90
15556;DHT22;7879;48.660;9.116;2022-12-07T03:25:41;2.40;99.90
15556;DHT22;7879;48.660;9.116;2022-12-07T03:28:10;2.40;99.90
15556;DHT22;7879;48.660;9.116;2022-12-07T03:31:00;2.40;99.90
15556;DHT22;7879;48.660;9.116;2022-12-07T03:33:40;2.40;99.90
15556;DHT22;7879;48.660;9.116;2022-12-07T03:36:24;2.40;99.90
15556;DHT22;7879;48.660;9.116;2022-12-07T03:42:10;2.30;99.90
15556;DHT22;7879;48.660;9.116;2022-12-07T03:44:37;2.30;99.90
15556;DHT22;7879;48.660;9.116;2022-12-07T03:49:48;2.30;99.90
15556;DHT22;7879;48.660;9.116;2022-12-07T03:52:26;2.30;99.90
15556;DHT22;7879;48.660;9.116;2022-12-07T03:55:13;2.30;99.90
15556;DHT22;7879;48.660;9.116;2022-12-07T03:57:43;2.30;99.90
15556;DHT22;7879;48.660;9.116;2022-12-07T04:00:11;2.30;99.90
15556;DHT22;7879;48.660;9.116;2022-12-07T04:02:39;2.30;99.90
15556;DHT22;7879;48.660;9.116;2022-12-07T04:05:06;2.30;99.90
15556;DHT22;7879;48.660;9.116;2022-12-07T04:07:33;2.30;99.90
15556;DHT22;7879;48.660;9.116;2022-12-07T04:10:00;2.30;99.90
15556;DHT22;7879;48.660;9.116;2022-12-07T04:12:28;2.30;99.90
15556;DHT22;7879;48.660;9.116;2022-12-07T04:14:54;2.30;99.90
15556;DHT22;7879;48.660;9.116;2022-12-07T04:17:21;2.30;99.90
15556;DHT22;7879;48.660;9.116;2022-12-07T04:19:48;2.30;99.90
15556;DHT22;7879;48.660;9.116;2022-12-07T04:22:15;2.30;99.90
15556;DHT22;7879;48.660;9.116;2022-12-07T04:24:42;2.30;99.90
15556;DHT22;7879;48.660;9.116;2022-12-07T04:29:42;2.20;99.90
15556;DHT22;7879;48.660;9.116;2022-12-07T04:32:09;2.20;99.90
15556;DHT22;7879;48.660;9.116;2022-12-07T04:34:36;2.20;99.90
15556;DHT22;7879;48.660;9.116;2022-12-07T04:37:03;2.20;99.90
15556;DHT22;7879;48.660;9.116;2022-12-07T04:39:31;2.20;99.90
15556;DHT22;7879;48.660;9.116;2022-12-07T04:41:59;2.20;99.90
15556;DHT22;7879;48.660;9.116;2022-12-07T04:44:28;2.20;99.90
15556;DHT22;7879;48.660;9.116;2022-12-07T04:46:55;2.20;99.90
15556;DHT22;7879;48.660;9.116;2022-12-07T04:49:23;2.20;99.90
15556;DHT22;7879;48.660;9.116;2022-12-07T04:51:51;2.20;99.90
15556;DHT22;7879;48.660;9.116;2022-12-07T04:54:18;2.10;99.90
15556;DHT22;7879;48.660;9.116;2022-12-07T04:56:44;2.10;99.90
15556;DHT22;7879;48.660;9.116;2022-12-07T04:59:12;2.10;99.90
15556;DHT22;7879;48.660;9.116;2022-12-07T05:01:39;2.10;99.90
15556;DHT22;7879;48.660;9.116;2022-12-07T05:04:06;2.10;99.90
15556;DHT22;7879;48.660;9.116;2022-12-07T05:06:33;2.10;99.90
15556;DHT22;7879;48.660;9.116;2022-12-07T05:09:04;2.00;99.90
15556;DHT22;7879;48.660;9.116;2022-12-07T05:11:31;2.00;99.90
15556;DHT22;7879;48.660;9.116;2022-12-07T05:14:16;2.00;99.90
15556;DHT22;7879;48.660;9.116;2022-12-07T05:16:46;1.90;99.90
15556;DHT22;7879;48.660;9.116;2022-12-07T05:19:14;1.90;99.90
15556;DHT22;7879;48.660;9.116;2022-12-07T05:21:41;1.80;99.90
15556;DHT22;7879;48.660;9.116;2022-12-07T05:24:10;1.80;99.90
15556;DHT22;7879;48.660;9.116;2022-12-07T05:26:37;1.80;99.90
15556;DHT22;7879;48.660;9.116;2022-12-07T05:29:04;1.80;99.90
15556;DHT22;7879;48.660;9.116;2022-12-07T05:31:31;1.80;99.90
15556;DHT22;7879;48.660;9.116;2022-12-07T05:33:58;1.80;99.90
15556;DHT22;7879;48.660;9.116;2022-12-07T05:36:25;1.80;99.90
15556;DHT22;7879;48.660;9.116;2022-12-07T05:38:52;1.80;99.90
15556;DHT22;7879;48.660;9.116;2022-12-07T05:41:19;1.80;99.90
15556;DHT22;7879;48.660;9.116;2022-12-07T05:44:05;1.70;99.90
15556;DHT22;7879;48.660;9.116;2022-12-07T05:46:32;1.70;99.90
15556;DHT22;7879;48.660;9.116;2022-12-07T05:49:00;1.70;99.90
15556;DHT22;7879;48.660;9.116;2022-12-07T05:51:27;1.70;99.90
15556;DHT22;7879;48.660;9.116;2022-12-07T05:53:54;1.70;99.90
15556;DHT22;7879;48.660;9.116;2022-12-07T05:56:21;1.60;99.90
15556;DHT22;7879;48.660;9.116;2022-12-07T05:58:48;1.50;99.90
15556;DHT22;7879;48.660;9.116;2022-12-07T06:01:33;1.50;99.90
15556;DHT22;7879;48.660;9.116;2022-12-07T06:04:00;1.40;99.90
15556;DHT22;7879;48.660;9.116;2022-12-07T06:06:27;1.40;99.90
15556;DHT22;7879;48.660;9.116;2022-12-07T06:08:54;1.30;99.90
15556;DHT22;7879;48.660;9.116;2022-12-07T06:11:22;1.30;99.90
15556;DHT22;7879;48.660;9.116;2022-12-07T06:14:08;1.30;99.90
15556;DHT22;7879;48.660;9.116;2022-12-07T06:16:34;1.20;99.90
15556;DHT22;7879;48.660;9.116;2022-12-07T06:19:01;1.20;99.90
15556;DHT22;7879;48.660;9.116;2022-12-07T06:21:28;1.10;99.90
15556;DHT22;7879;48.660;9.116;2022-12-07T06:23:55;1.10;99.90
15556;DHT22;7879;48.660;9.116;2022-12-07T06:26:22;1.10;99.90
15556;DHT22;7879;48.660;9.116;2022-12-07T06:28:49;1.10;99.90
15556;DHT22;7879;48.660;9.116;2022-12-07T06:31:16;1.10;99.90
15556;DHT22;7879;48.660;9.116;2022-12-07T06:33:43;1.10;99.90
15556;DHT22;7879;48.660;9.116;2022-12-07T06:36:10;1.00;99.90
15556;DHT22;7879;48.660;9.116;2022-12-07T06:38:37;1.00;99.90
15556;DHT22;7879;48.660;9.116;2022-12-07T06:41:04;1.00;99.90
15556;DHT22;7879;48.660;9.116;2022-12-07T06:43:30;1.00;99.90
15556;DHT22;7879;48.660;9.116;2022-12-07T06:45:57;1.00;99.90
15556;DHT22;7879;48.660;9.116;2022-12-07T06:48:24;1.00;99.90
15556;DHT22;7879;48.660;9.116;2022-12-07T06:50:51;1.00;99.90
15556;DHT22;7879;48.660;9.116;2022-12-07T06:53:21;1.10;99.90
15556;DHT22;7879;48.660;9.116;2022-12-07T06:55:49;1.10;99.90
15556;DHT22;7879;48.660;9.116;2022-12-07T06:58:16;1.10;99.90
15556;DHT22;7879;48.660;9.116;2022-12-07T07:00:44;1.10;99.90
15556;DHT22;7879;48.660;9.116;2022-12-07T07:03:11;1.10;99.90
15556;DHT22;7879;48.660;9.116;2022-12-07T07:05:38;1.10;99.90
15556;DHT22;7879;48.660;9.116;2022-12-07T07:08:05;1.10;99.90
15556;DHT22;7879;48.660;9.116;2022-12-07T07:10:48;1.20;99.90
15556;DHT22;7879;48.660;9.116;2022-12-07T07:13:15;1.10;99.90
15556;DHT22;7879;48.660;9.116;2022-12-07T07:15:42;1.10;99.90
15556;DHT22;7879;48.660;9.116;2022-12-07T07:18:09;1.10;99.90
15556;DHT22;7879;48.660;9.116;2022-12-07T07:20:36;1.10;99.90
15556;DHT22;7879;48.660;9.116;2022-12-07T07:23:03;1.00;99.90
15556;DHT22;7879;48.660;9.116;2022-12-07T07:25:30;1.00;99.90
15556;DHT22;7879;48.660;9.116;2022-12-07T07:27:56;1.00;99.90
15556;DHT22;7879;48.660;9.116;2022-12-07T07:30:23;1.00;99.90
15556;DHT22;7879;48.660;9.116;2022-12-07T07:32:50;1.00;99.90
15556;DHT22;7879;48.660;9.116;2022-12-07T07:35:17;1.00;99.90
15556;DHT22;7879;48.660;9.116;2022-12-07T07:37:44;1.10;99.90
15556;DHT22;7879;48.660;9.116;2022-12-07T07:40:11;1.10;99.90
15556;DHT22;7879;48.660;9.116;2022-12-07T07:42:37;1.20;99.90
15556;DHT22;7879;48.660;9.116;2022-12-07T07:45:05;1.20;99.90
15556;DHT22;7879;48.660;9.116;2022-12-07T07:47:31;1.20;99.90
15556;DHT22;7879;48.660;9.116;2022-12-07T07:49:58;1.20;99.90
15556;DHT22;7879;48.660;9.116;2022-12-07T07:52:25;1.20;99.90
15556;DHT22;7879;48.660;9.116;2022-12-07T07:54:52;1.30;99.90
15556;DHT22;7879;48.660;9.116;2022-12-07T07:57:19;1.30;99.90
15556;DHT22;7879;48.660;9.116;2022-12-07T07:59:46;1.30;99.90
15556;DHT22;7879;48.660;9.116;2022-12-07T08:02:18;1.30;99.90
15556;DHT22;7879;48.660;9.116;2022-12-07T08:04:45;1.30;99.90
15556;DHT22;7879;48.660;9.116;2022-12-07T08:07:13;1.30;99.90
15556;DHT22;7879;48.660;9.116;2022-12-07T08:09:41;1.40;99.90
15556;DHT22;7879;48.660;9.116;2022-12-07T08:12:08;1.40;99.90
15556;DHT22;7879;48.660;9.116;2022-12-07T08:14:35;1.40;99.90
15556;DHT22;7879;48.660;9.116;2022-12-07T08:17:02;1.40;99.90
15556;DHT22;7879;48.660;9.116;2022-12-07T08:19:29;1.40;99.90
15556;DHT22;7879;48.660;9.116;2022-12-07T08:21:55;1.30;99.90
15556;DHT22;7879;48.660;9.116;2022-12-07T08:24:23;1.30;99.90
15556;DHT22;7879;48.660;9.116;2022-12-07T08:26:50;1.30;99.90
15556;DHT22;7879;48.660;9.116;2022-12-07T08:29:17;1.40;99.90
15556;DHT22;7879;48.660;9.116;2022-12-07T08:31:44;1.40;99.90
15556;DHT22;7879;48.660;9.116;2022-12-07T08:34:12;1.40;99.90
15556;DHT22;7879;48.660;9.116;2022-12-07T08:36:39;1.50;99.90
15556;DHT22;7879;48.660;9.116;2022-12-07T08:39:06;1.50;99.90
15556;DHT22;7879;48.660;9.116;2022-12-07T08:41:53;1.50;99.90
15556;DHT22;7879;48.660;9.116;2022-12-07T08:44:19;1.60;99.90
15556;DHT22;7879;48.660;9.116;2022-12-07T08:46:51;1.60;99.90
15556;DHT22;7879;48.660;9.116;2022-12-07T08:49:33;1.60;99.90
15556;DHT22;7879;48.660;9.116;2022-12-07T08:52:02;1.70;99.90
15556;DHT22;7879;48.660;9.116;2022-12-07T08:54:31;1.70;99.90
15556;DHT22;7879;48.660;9.116;2022-12-07T08:57:00;1.70;99.90
15556;DHT22;7879;48.660;9.116;2022-12-07T08:59:27;1.70;99.90
15556;DHT22;7879;48.660;9.116;2022-12-07T09:01:55;1.80;99.90
15556;DHT22;7879;48.660;9.116;2022-12-07T09:04:21;1.80;99.90
15556;DHT22;7879;48.660;9.116;2022-12-07T09:06:48;1.80;99.90
15556;DHT22;7879;48.660;9.116;2022-12-07T09:09:15;1.90;99.90
15556;DHT22;7879;48.660;9.116;2022-12-07T09:11:42;1.90;99.90
15556;DHT22;7879;48.660;9.116;2022-12-07T09:14:12;2.00;99.90
15556;DHT22;7879;48.660;9.116;2022-12-07T09:16:39;2.00;99.90
15556;DHT22;7879;48.660;9.116;2022-12-07T09:19:07;2.00;99.90
15556;DHT22;7879;48.660;9.116;2022-12-07T09:21:34;2.00;99.90
15556;DHT22;7879;48.660;9.116;2022-12-07T09:24:01;2.00;99.90
15556;DHT22;7879;48.660;9.116;2022-12-07T09:26:28;2.00;99.90
15556;DHT22;7879;48.660;9.116;2022-12-07T09:28:55;2.10;99.90
15556;DHT22;7879;48.660;9.116;2022-12-07T09:31:22;2.10;99.90
15556;DHT22;7879;48.660;9.116;2022-12-07T09:33:58;2.10;99.90
15556;DHT22;7879;48.660;9.116;2022-12-07T09:36:26;2.20;99.90
15556;DHT22;7879;48.660;9.116;2022-12-07T09:38:53;2.30;99.90
15556;DHT22;7879;48.660;9.116;2022-12-07T09:41:21;2.30;99.90
15556;DHT22;7879;48.660;9.116;2022-12-07T09:43:49;2.30;99.90
15556;DHT22;7879;48.660;9.116;2022-12-07T09:46:17;2.40;99.90
15556;DHT22;7879;48.660;9.116;2022-12-07T09:48:46;2.40;99.90
15556;DHT22;7879;48.660;9.116;2022-12-07T09:51:17;2.40;99.90
15556;DHT22;7879;48.660;9.116;2022-12-07T09:53:51;2.50;99.90
15556;DHT22;7879;48.660;9.116;2022-12-07T09:56:19;2.50;99.90
15556;DHT22;7879;48.660;9.116;2022-12-07T09:58:46;2.50;99.90
15556;DHT22;7879;48.660;9.116;2022-12-07T10:01:19;2.60;99.90
15556;DHT22;7879;48.660;9.116;2022-12-07T10:03:55;2.60;99.90
15556;DHT22;7879;48.660;9.116;2022-12-07T10:06:25;2.60;99.90
15556;DHT22;7879;48.660;9.116;2022-12-07T10:08:52;2.60;99.90
15556;DHT22;7879;48.660;9.116;2022-12-07T10:11:18;2.70;99.90
15556;DHT22;7879;48.660;9.116;2022-12-07T10:13:48;2.70;99.90
15556;DHT22;7879;48.660;9.116;2022-12-07T10:18:52;2.80;99.90
15556;DHT22;7879;48.660;9.116;2022-12-07T10:21:24;2.70;99.90
15556;DHT22;7879;48.660;9.116;2022-12-07T10:26:51;2.80;99.90
15556;DHT22;7879;48.660;9.116;2022-12-07T10:31:48;2.80;99.90
15556;DHT22;7879;48.660;9.116;2022-12-07T10:34:23;2.90;99.90
15556;DHT22;7879;48.660;9.116;2022-12-07T10:36:52;2.90;99.90
15556;DHT22;7879;48.660;9.116;2022-12-07T10:39:22;3.00;99.90
15556;DHT22;7879;48.660;9.116;2022-12-07T10:44:44;3.00;99.90
15556;DHT22;7879;48.660;9.116;2022-12-07T10:47:44;3.10;99.90
15556;DHT22;7879;48.660;9.116;2022-12-07T10:56:14;3.20;99.90
15556;DHT22;7879;48.660;9.116;2022-12-07T11:01:33;3.10;99.90
15556;DHT22;7879;48.660;9.116;2022-12-07T11:04:41;3.10;99.90
15556;DHT22;7879;48.660;9.116;2022-12-07T11:12:58;3.20;99.90
15556;DHT22;7879;48.660;9.116;2022-12-07T11:18:06;3.20;99.90
15556;DHT22;7879;48.660;9.116;2022-12-07T11:20:50;3.30;99.90
15556;DHT22;7879;48.660;9.116;2022-12-07T11:23:49;3.30;99.90
15556;DHT22;7879;48.660;9.116;2022-12-07T11:26:30;3.30;99.90
15556;DHT22;7879;48.660;9.116;2022-12-07T11:32:07;3.40;99.90
15556;DHT22;7879;48.660;9.116;2022-12-07T11:37:43;3.40;99.90
15556;DHT22;7879;48.660;9.116;2022-12-07T11:40:30;3.40;99.90
15556;DHT22;7879;48.660;9.116;2022-12-07T11:43:05;3.40;99.90
15556;DHT22;7879;48.660;9.116;2022-12-07T11:45:35;3.40;99.90
15556;DHT22;7879;48.660;9.116;2022-12-07T11:48:19;3.50;99.90
15556;DHT22;7879;48.660;9.116;2022-12-07T11:50:55;3.50;99.90
15556;DHT22;7879;48.660;9.116;2022-12-07T11:53:28;3.50;99.90
15556;DHT22;7879;48.660;9.116;2022-12-07T12:03:49;3.50;99.90
15556;DHT22;7879;48.660;9.116;2022-12-07T12:06:20;3.50;99.90
15556;DHT22;7879;48.660;9.116;2022-12-07T12:15:29;3.60;99.90
15556;DHT22;7879;48.660;9.116;2022-12-07T12:20:57;3.60;99.90
15556;DHT22;7879;48.660;9.116;2022-12-07T12:26:37;3.70;99.90
15556;DHT22;7879;48.660;9.116;2022-12-07T12:32:13;3.70;99.90
15556;DHT22;7879;48.660;9.116;2022-12-07T12:42:55;3.70;99.90
15556;DHT22;7879;48.660;9.116;2022-12-07T12:45:32;3.70;99.90
15556;DHT22;7879;48.660;9.116;2022-12-07T12:50:35;3.70;99.90
15556;DHT22;7879;48.660;9.116;2022-12-07T13:00:45;3.70;99.90
15556;DHT22;7879;48.660;9.116;2022-12-07T13:03:26;3.70;99.90
15556;DHT22;7879;48.660;9.116;2022-12-07T13:06:20;3.70;99.90
15556;DHT22;7879;48.660;9.116;2022-12-07T13:08:59;3.70;99.90
15556;DHT22;7879;48.660;9.116;2022-12-07T13:11:35;3.70;99.90
15556;DHT22;7879;48.660;9.116;2022-12-07T13:25:18;3.80;99.90
15556;DHT22;7879;48.660;9.116;2022-12-07T13:27:55;3.80;99.90
15556;DHT22;7879;48.660;9.116;2022-12-07T13:30:22;3.70;99.90
15556;DHT22;7879;48.660;9.116;2022-12-07T13:32:54;3.80;99.90
15556;DHT22;7879;48.660;9.116;2022-12-07T13:35:35;3.80;99.90
15556;DHT22;7879;48.660;9.116;2022-12-07T13:38:19;3.80;99.90
15556;DHT22;7879;48.660;9.116;2022-12-07T13:41:15;3.80;99.90
15556;DHT22;7879;48.660;9.116;2022-12-07T13:44:03;3.80;99.90
15556;DHT22;7879;48.660;9.116;2022-12-07T13:49:30;3.80;99.90
15556;DHT22;7879;48.660;9.116;2022-12-07T13:52:23;3.80;99.90
15556;DHT22;7879;48.660;9.116;2022-12-07T13:57:35;3.80;99.90
15556;DHT22;7879;48.660;9.116;2022-12-07T14:00:15;3.80;99.90
15556;DHT22;7879;48.660;9.116;2022-12-07T14:03:42;3.80;99.90
15556;DHT22;7879;48.660;9.116;2022-12-07T14:08:31;3.80;99.90
15556;DHT22;7879;48.660;9.116;2022-12-07T14:10:58;3.90;99.90
15556;DHT22;7879;48.660;9.116;2022-12-07T14:13:37;3.80;99.90
15556;DHT22;7879;48.660;9.116;2022-12-07T14:18:44;3.80;99.90
15556;DHT22;7879;48.660;9.116;2022-12-07T14:23:39;3.80;99.90
15556;DHT22;7879;48.660;9.116;2022-12-07T14:26:19;3.80;99.90
15556;DHT22;7879;48.660;9.116;2022-12-07T14:28:47;3.80;99.90
15556;DHT22;7879;48.660;9.116;2022-12-07T14:31:16;3.80;99.90
15556;DHT22;7879;48.660;9.116;2022-12-07T14:33:51;3.70;99.90
15556;DHT22;7879;48.660;9.116;2022-12-07T14:36:18;3.70;99.90
15556;DHT22;7879;48.660;9.116;2022-12-07T14:38:45;3.70;99.90
15556;DHT22;7879;48.660;9.116;2022-12-07T14:41:24;3.70;99.90
15556;DHT22;7879;48.660;9.116;2022-12-07T14:44:11;3.70;99.90
15556;DHT22;7879;48.660;9.116;2022-12-07T14:46:58;3.70;99.90
15556;DHT22;7879;48.660;9.116;2022-12-07T14:49:45;3.70;99.90
15556;DHT22;7879;48.660;9.116;2022-12-07T14:52:19;3.70;99.90
15556;DHT22;7879;48.660;9.116;2022-12-07T14:55:14;3.70;99.90
15556;DHT22;7879;48.660;9.116;2022-12-07T14:57:42;3.70;99.90
15556;DHT22;7879;48.660;9.116;2022-12-07T15:00:13;3.70;99.90
15556;DHT22;7879;48.660;9.116;2022-12-07T15:02:40;3.60;99.90
15556;DHT22;7879;48.660;9.116;2022-12-07T15:05:07;3.60;99.90
15556;DHT22;7879;48.660;9.116;2022-12-07T15:07:41;3.60;99.90
15556;DHT22;7879;48.660;9.116;2022-12-07T15:10:18;3.60;99.90
15556;DHT22;7879;48.660;9.116;2022-12-07T15:12:50;3.60;99.90
15556;DHT22;7879;48.660;9.116;2022-12-07T15:15:17;3.60;99.90
15556;DHT22;7879;48.660;9.116;2022-12-07T15:17:44;3.60;99.90
15556;DHT22;7879;48.660;9.116;2022-12-07T15:20:15;3.60;99.90
15556;DHT22;7879;48.660;9.116;2022-12-07T15:22:43;3.50;99.90
15556;DHT22;7879;48.660;9.116;2022-12-07T15:25:13;3.50;99.90
15556;DHT22;7879;48.660;9.116;2022-12-07T15:27:40;3.50;99.90
15556;DHT22;7879;48.660;9.116;2022-12-07T15:30:09;3.50;99.90
15556;DHT22;7879;48.660;9.116;2022-12-07T15:32:36;3.50;99.90
15556;DHT22;7879;48.660;9.116;2022-12-07T15:35:03;3.50;99.90
15556;DHT22;7879;48.660;9.116;2022-12-07T15:37:30;3.50;99.90
15556;DHT22;7879;48.660;9.116;2022-12-07T15:39:57;3.40;99.90
15556;DHT22;7879;48.660;9.116;2022-12-07T15:42:31;3.50;99.90
15556;DHT22;7879;48.660;9.116;2022-12-07T15:44:58;3.50;99.90
15556;DHT22;7879;48.660;9.116;2022-12-07T15:47:34;3.50;99.90
15556;DHT22;7879;48.660;9.116;2022-12-07T15:50:22;3.40;99.90
15556;DHT22;7879;48.660;9.116;2022-12-07T15:52:49;3.40;99.90
15556;DHT22;7879;48.660;9.116;2022-12-07T15:55:16;3.40;99.90
15556;DHT22;7879;48.660;9.116;2022-12-07T15:57:42;3.50;99.90
15556;DHT22;7879;48.660;9.116;2022-12-07T16:00:10;3.40;99.90
15556;DHT22;7879;48.660;9.116;2022-12-07T16:02:37;3.40;99.90
15556;DHT22;7879;48.660;9.116;2022-12-07T16:05:06;3.40;99.90
15556;DHT22;7879;48.660;9.116;2022-12-07T16:07:32;3.40;99.90
15556;DHT22;7879;48.660;9.116;2022-12-07T16:09:59;3.40;99.90
15556;DHT22;7879;48.660;9.116;2022-12-07T16:12:26;3.30;99.90
15556;DHT22;7879;48.660;9.116;2022-12-07T16:14:53;3.30;99.90
15556;DHT22;7879;48.660;9.116;2022-12-07T16:17:19;3.30;99.90
15556;DHT22;7879;48.660;9.116;2022-12-07T16:19:46;3.30;99.90
15556;DHT22;7879;48.660;9.116;2022-12-07T16:22:13;3.30;99.90
15556;DHT22;7879;48.660;9.116;2022-12-07T16:24:40;3.20;99.90
15556;DHT22;7879;48.660;9.116;2022-12-07T16:27:07;3.30;99.90
15556;DHT22;7879;48.660;9.116;2022-12-07T16:29:34;3.20;99.90
15556;DHT22;7879;48.660;9.116;2022-12-07T16:32:01;3.20;99.90
15556;DHT22;7879;48.660;9.116;2022-12-07T16:34:28;3.20;99.90
15556;DHT22;7879;48.660;9.116;2022-12-07T16:36:55;3.20;99.90
15556;DHT22;7879;48.660;9.116;2022-12-07T16:39:31;3.20;99.90
15556;DHT22;7879;48.660;9.116;2022-12-07T16:41:58;3.10;99.90
15556;DHT22;7879;48.660;9.116;2022-12-07T16:44:25;3.20;99.90
15556;DHT22;7879;48.660;9.116;2022-12-07T16:46:52;3.10;99.90
15556;DHT22;7879;48.660;9.116;2022-12-07T16:49:19;3.10;99.90
15556;DHT22;7879;48.660;9.116;2022-12-07T16:51:49;3.10;99.90
15556;DHT22;7879;48.660;9.116;2022-12-07T16:54:36;3.10;99.90
15556;DHT22;7879;48.660;9.116;2022-12-07T16:57:03;3.00;99.90
15556;DHT22;7879;48.660;9.116;2022-12-07T16:59:29;3.10;99.90
15556;DHT22;7879;48.660;9.116;2022-12-07T17:01:56;3.10;99.90
15556;DHT22;7879;48.660;9.116;2022-12-07T17:04:23;3.00;99.90
15556;DHT22;7879;48.660;9.116;2022-12-07T17:06:50;3.00;99.90
15556;DHT22;7879;48.660;9.116;2022-12-07T17:09:17;3.00;99.90
15556;DHT22;7879;48.660;9.116;2022-12-07T17:11:47;3.00;99.90
15556;DHT22;7879;48.660;9.116;2022-12-07T17:14:14;3.00;99.90
15556;DHT22;7879;48.660;9.116;2022-12-07T17:17:00;3.00;99.90
15556;DHT22;7879;48.660;9.116;2022-12-07T17:19:27;3.00;99.90
15556;DHT22;7879;48.660;9.116;2022-12-07T17:21:54;3.00;99.90
15556;DHT22;7879;48.660;9.116;2022-12-07T17:24:20;2.90;99.90
15556;DHT22;7879;48.660;9.116;2022-12-07T17:26:47;3.00;99.90
15556;DHT22;7879;48.660;9.116;2022-12-07T17:29:16;2.80;99.90
15556;DHT22;7879;48.660;9.116;2022-12-07T17:31:45;2.80;99.90
15556;DHT22;7879;48.660;9.116;2022-12-07T17:34:17;2.80;99.90
15556;DHT22;7879;48.660;9.116;2022-12-07T17:36:44;2.70;99.90
15556;DHT22;7879;48.660;9.116;2022-12-07T17:39:14;2.70;99.90
15556;DHT22;7879;48.660;9.116;2022-12-07T17:41:42;2.70;99.90
15556;DHT22;7879;48.660;9.116;2022-12-07T17:44:27;2.70;99.90
15556;DHT22;7879;48.660;9.116;2022-12-07T17:46:55;2.70;99.90
15556;DHT22;7879;48.660;9.116;2022-12-07T17:49:27;2.60;99.90
15556;DHT22;7879;48.660;9.116;2022-12-07T17:51:54;2.60;99.90
15556;DHT22;7879;48.660;9.116;2022-12-07T17:54:39;2.60;99.90
15556;DHT22;7879;48.660;9.116;2022-12-07T17:57:07;2.60;99.90
15556;DHT22;7879;48.660;9.116;2022-12-07T17:59:34;2.70;99.90
15556;DHT22;7879;48.660;9.116;2022-12-07T18:02:01;2.60;99.90
15556;DHT22;7879;48.660;9.116;2022-12-07T18:04:29;2.50;99.90
15556;DHT22;7879;48.660;9.116;2022-12-07T18:06:56;2.50;99.90
15556;DHT22;7879;48.660;9.116;2022-12-07T18:09:23;2.60;99.90
15556;DHT22;7879;48.660;9.116;2022-12-07T18:11:50;2.60;99.90
15556;DHT22;7879;48.660;9.116;2022-12-07T18:14:17;2.60;99.90
15556;DHT22;7879;48.660;9.116;2022-12-07T18:16:44;2.60;99.90
15556;DHT22;7879;48.660;9.116;2022-12-07T18:19:12;2.60;99.90
15556;DHT22;7879;48.660;9.116;2022-12-07T18:21:41;2.60;99.90
15556;DHT22;7879;48.660;9.116;2022-12-07T18:24:11;2.60;99.90
15556;DHT22;7879;48.660;9.116;2022-12-07T18:26:38;2.50;99.90
15556;DHT22;7879;48.660;9.116;2022-12-07T18:29:08;2.60;99.90
15556;DHT22;7879;48.660;9.116;2022-12-07T18:31:36;2.50;99.90
15556;DHT22;7879;48.660;9.116;2022-12-07T18:34:07;2.40;99.90
15556;DHT22;7879;48.660;9.116;2022-12-07T18:36:40;2.50;99.90
15556;DHT22;7879;48.660;9.116;2022-12-07T18:39:08;2.50;99.90
15556;DHT22;7879;48.660;9.116;2022-12-07T18:41:37;2.40;99.90
15556;DHT22;7879;48.660;9.116;2022-12-07T18:44:06;2.40;99.90